createdAt,value
2018-07-20T00:01:44.445Z,76.18
2018-07-20T00:04:15.024Z,76.56
2018-07-20T00:06:45.659Z,76.57
2018-07-20T00:09:16.386Z,76.33
2018-07-20T00:11:47.184Z,76.21
2018-07-20T00:14:17.831Z,76.82
2018-07-20T00:16:49.352Z,77.00
2018-07-20T00:19:20.255Z,77.30
2018-07-20T00:21:56.115Z,77.58
2018-07-20T00:24:26.879Z,78.41
2018-07-20T00:26:57.037Z,78.90
2018-07-20T00:29:27.141Z,78.84
2018-07-20T00:31:58.264Z,79.33
2018-07-20T00:34:29.632Z,79.20
2018-07-20T00:37:00.324Z,79.12
2018-07-20T00:39:30.864Z,79.43
2018-07-20T00:42:01.357Z,79.81
2018-07-20T00:44:32.095Z,79.45
2018-07-20T00:47:02.118Z,79.38
2018-07-20T00:49:32.664Z,79.51
2018-07-20T00:52:03.615Z,79.67
2018-07-20T00:54:35.179Z,80.09
2018-07-20T00:57:05.917Z,79.98
2018-07-20T00:59:36.446Z,80.39
2018-07-20T01:02:06.974Z,79.98
2018-07-20T01:04:37.015Z,80.38
2018-07-20T01:07:07.718Z,79.92
2018-07-20T01:09:38.316Z,80.30
2018-07-20T01:12:10.117Z,80.36
2018-07-20T01:14:41.036Z,79.98
2018-07-20T01:17:11.632Z,79.09
2018-07-20T01:19:42.212Z,77.95
2018-07-20T01:22:12.926Z,78.28
2018-07-20T01:24:43.790Z,78.12
2018-07-20T01:27:14.375Z,77.58
2018-07-20T01:29:45.254Z,78.05
2018-07-20T01:32:16.178Z,77.98
2018-07-20T01:34:46.747Z,77.73
2018-07-20T01:37:18.134Z,78.61
2018-07-20T01:39:48.760Z,79.01
2018-07-20T01:42:19.387Z,79.59
2018-07-20T01:44:50.022Z,80.17
2018-07-20T01:47:20.665Z,80.36
2018-07-20T01:49:53.208Z,81.61
2018-07-20T01:52:24.260Z,82.18
2018-07-20T01:54:54.842Z,82.96
2018-07-20T01:57:25.323Z,83.71
2018-07-20T01:59:55.863Z,83.83
2018-07-20T02:02:26.729Z,84.38
2018-07-20T02:04:57.358Z,84.14
2018-07-20T02:07:27.957Z,83.90
2018-07-20T02:09:59.784Z,83.96
2018-07-20T02:12:30.549Z,84.07
2018-07-20T02:15:01.164Z,84.11
2018-07-20T02:17:31.662Z,84.54
2018-07-20T02:20:02.110Z,84.46
2018-07-20T02:22:32.664Z,84.23
2018-07-20T02:25:03.238Z,83.77
2018-07-20T02:27:34.691Z,82.57
2018-07-20T02:30:06.875Z,82.73
2018-07-20T02:32:37.461Z,83.36
2018-07-20T02:35:08.691Z,83.78
2018-07-20T02:37:39.189Z,83.41
2018-07-20T02:40:09.345Z,84.36
2018-07-20T02:42:40.512Z,84.33
2018-07-20T02:45:11.245Z,84.49
2018-07-20T02:47:42.237Z,84.91
2018-07-20T02:50:12.945Z,84.93
2018-07-20T02:52:43.581Z,84.83
2018-07-20T02:55:14.131Z,84.83
2018-07-20T02:57:44.741Z,85.14
2018-07-20T03:00:15.438Z,85.31
2018-07-20T03:02:46.001Z,85.79
2018-07-20T03:05:17.268Z,85.77
2018-07-20T03:07:48.984Z,86.34
2018-07-20T03:10:19.861Z,85.76
2018-07-20T03:12:50.534Z,85.84
2018-07-20T03:15:21.078Z,86.19
2018-07-20T03:17:51.760Z,86.31
2018-07-20T03:20:21.958Z,86.82
2018-07-20T03:22:52.591Z,87.05
2018-07-20T03:25:23.204Z,87.16
2018-07-20T03:27:54.772Z,86.68
2018-07-20T03:30:25.516Z,86.95
2018-07-20T03:32:55.659Z,86.27
2018-07-20T03:35:26.312Z,86.86
2018-07-20T03:37:56.996Z,87.00
2018-07-20T03:40:27.740Z,87.24
2018-07-20T03:42:58.483Z,87.83
2018-07-20T03:45:29.528Z,88.54
2018-07-20T03:48:01.138Z,88.21
2018-07-20T03:50:31.859Z,88.45
2018-07-20T03:53:02.610Z,88.42
2018-07-20T03:55:32.639Z,88.21
2018-07-20T03:58:03.450Z,87.88
2018-07-20T04:00:34.002Z,87.64
2018-07-20T04:03:04.662Z,87.55
2018-07-20T04:05:35.542Z,87.99
2018-07-20T04:08:06.863Z,88.01
2018-07-20T04:10:37.632Z,87.73
2018-07-20T04:13:08.318Z,87.70
2018-07-20T04:15:38.854Z,87.48
2018-07-20T04:18:09.492Z,86.79
2018-07-20T04:20:40.130Z,86.78
2018-07-20T04:23:10.910Z,86.50
2018-07-20T04:25:42.057Z,86.41
2018-07-20T04:28:13.001Z,85.80
2018-07-20T04:30:43.673Z,86.02
2018-07-20T04:33:14.627Z,85.65
2018-07-20T04:35:45.134Z,85.55
2018-07-20T04:38:15.827Z,85.37
2018-07-20T04:40:46.518Z,84.95
2018-07-20T04:43:17.609Z,85.15
2018-07-20T04:45:49.120Z,84.53
2018-07-20T04:48:19.651Z,84.48
2018-07-20T04:50:50.322Z,84.73
2018-07-20T04:53:20.859Z,84.33
2018-07-20T04:55:51.570Z,84.23
2018-07-20T04:58:22.035Z,83.63
2018-07-20T05:00:52.643Z,83.27
2018-07-20T05:03:23.915Z,82.85
2018-07-20T05:05:55.244Z,82.98
2018-07-20T05:08:25.718Z,82.82
2018-07-20T05:10:56.390Z,82.43
2018-07-20T05:13:26.498Z,81.49
2018-07-20T05:15:57.166Z,81.64
2018-07-20T05:18:27.817Z,81.66
2018-07-20T05:20:58.553Z,81.63
2018-07-20T05:23:30.504Z,81.71
2018-07-20T05:26:01.388Z,81.03
2018-07-20T05:28:32.608Z,80.30
2018-07-20T05:31:03.387Z,79.60
2018-07-20T05:33:34.062Z,79.85
2018-07-20T05:36:04.875Z,79.26
2018-07-20T05:38:35.897Z,78.22
2018-07-20T05:41:06.527Z,77.54
2018-07-20T05:43:37.470Z,77.22
2018-07-20T05:46:08.319Z,76.90
2018-07-20T05:48:39.064Z,76.53
2018-07-20T05:51:10.373Z,75.89
2018-07-20T05:53:41.869Z,75.93
2018-07-20T05:56:12.669Z,75.59
2018-07-20T05:58:44.160Z,75.22
2018-07-20T06:01:15.141Z,74.80
2018-07-20T06:03:45.611Z,74.88
2018-07-20T06:06:16.542Z,74.69
2018-07-20T06:08:47.951Z,73.92
2018-07-20T06:11:18.938Z,70.82
2018-07-20T06:13:51.536Z,66.99
2018-07-20T06:16:22.305Z,62.72
2018-07-20T06:18:53.047Z,60.41
2018-07-20T06:21:24.267Z,58.90
2018-07-20T06:23:55.438Z,56.33
2018-07-20T06:26:26.133Z,56.20
2018-07-20T06:28:57.363Z,54.64
2018-07-20T06:31:29.001Z,51.82
2018-07-20T06:33:59.748Z,51.85
2018-07-20T06:36:30.521Z,50.96
2018-07-20T06:39:01.425Z,50.79
2018-07-20T06:41:32.191Z,48.71
2018-07-20T06:44:02.833Z,48.58
2018-07-20T06:46:33.758Z,47.88
2018-07-20T06:49:05.838Z,46.37
2018-07-20T06:51:37.448Z,45.37
2018-07-20T06:54:08.136Z,46.04
2018-07-20T06:56:38.806Z,45.06
2018-07-20T06:59:09.435Z,43.98
2018-07-20T07:01:40.057Z,44.14
2018-07-20T07:04:10.827Z,42.45
2018-07-20T07:06:42.429Z,42.11
2018-07-20T07:09:14.121Z,42.76
2018-07-20T07:11:44.914Z,42.53
2018-07-20T07:14:16.357Z,41.48
2018-07-20T07:16:47.270Z,40.28
2018-07-20T07:19:17.982Z,38.78
2018-07-20T07:21:49.636Z,39.57
2018-07-20T07:24:20.691Z,37.39
2018-07-20T07:26:52.287Z,36.45
2018-07-20T07:29:22.977Z,35.34
2018-07-20T07:31:53.704Z,35.89
2018-07-20T07:34:24.574Z,35.38
2018-07-20T07:36:55.406Z,34.42
2018-07-20T07:39:26.249Z,34.27
2018-07-20T07:41:57.812Z,33.93
2018-07-20T07:44:29.639Z,33.07
2018-07-20T07:47:00.552Z,32.33
2018-07-20T07:49:31.768Z,31.82
2018-07-20T07:52:02.363Z,31.87
2018-07-20T07:54:33.103Z,32.14
2018-07-20T07:57:04.149Z,31.97
2018-07-20T07:59:35.174Z,33.03
2018-07-20T08:02:06.765Z,31.49
2018-07-20T08:04:38.839Z,31.04
2018-07-20T08:07:09.773Z,30.61
2018-07-20T08:09:40.795Z,30.56
2018-07-20T08:12:11.449Z,28.41
2018-07-20T08:14:42.593Z,27.50
2018-07-20T08:17:13.926Z,28.17
2018-07-20T08:19:46.314Z,26.79
2018-07-20T08:22:19.418Z,27.09
2018-07-20T08:24:53.173Z,26.84
2018-07-20T08:27:24.265Z,25.96
2018-07-20T08:29:55.596Z,26.94
2018-07-20T08:32:28.364Z,25.49
2018-07-20T08:35:00.125Z,23.06
2018-07-20T08:37:33.095Z,22.32
2018-07-20T08:40:05.485Z,22.43
2018-07-20T08:42:36.576Z,20.27
2018-07-20T08:45:09.786Z,20.98
2018-07-20T08:47:40.926Z,20.50
2018-07-20T08:50:12.556Z,17.94
2018-07-20T08:52:44.086Z,19.48
2018-07-20T08:55:15.310Z,19.42
2018-07-20T08:57:45.735Z,18.40
2018-07-20T09:00:16.853Z,18.88
2018-07-20T09:02:48.058Z,19.25
2018-07-20T09:05:19.386Z,18.72
2018-07-20T09:07:51.783Z,21.08
2018-07-20T09:10:28.046Z,18.21
2018-07-20T09:13:00.144Z,17.85
2018-07-20T09:15:31.203Z,18.21
2018-07-20T09:18:03.715Z,18.28
2018-07-20T09:20:36.157Z,16.92
2018-07-20T09:23:09.467Z,16.12
2018-07-20T09:25:40.888Z,16.63
2018-07-20T09:28:13.262Z,15.92
2018-07-20T09:30:44.095Z,15.58
2018-07-20T09:33:15.803Z,17.04
2018-07-20T09:35:47.047Z,16.65
2018-07-20T09:38:18.311Z,16.62
2018-07-20T09:40:50.719Z,15.76
2018-07-20T09:43:21.649Z,15.42
2018-07-20T09:45:53.143Z,15.99
2018-07-20T09:48:24.459Z,15.64
2018-07-20T09:50:56.081Z,16.42
2018-07-20T09:53:29.641Z,16.61
2018-07-20T09:56:00.631Z,17.00
2018-07-20T09:58:33.642Z,16.28
2018-07-20T10:01:04.914Z,16.70
2018-07-20T10:03:36.109Z,16.88
2018-07-20T10:06:07.616Z,16.22
2018-07-20T10:08:39.709Z,16.05
2018-07-20T10:11:11.023Z,16.60
2018-07-20T10:13:44.500Z,17.13
2018-07-20T10:16:17.332Z,16.27
2018-07-20T10:18:48.777Z,17.09
2018-07-20T10:21:20.016Z,19.74
2018-07-20T10:23:52.268Z,19.01
2018-07-20T10:26:23.643Z,17.62
2018-07-20T10:28:55.574Z,17.33
2018-07-20T10:31:27.488Z,17.47
2018-07-20T10:33:59.796Z,17.70
2018-07-20T10:36:31.071Z,17.39
2018-07-20T10:39:01.775Z,17.30
2018-07-20T10:41:32.495Z,17.07
2018-07-20T10:44:03.110Z,17.11
2018-07-20T10:46:34.545Z,16.77
2018-07-20T10:49:06.238Z,16.95
2018-07-20T10:51:36.914Z,18.23
2018-07-20T10:54:07.778Z,17.12
2018-07-20T10:56:38.546Z,16.74
2018-07-20T10:59:09.789Z,16.66
2018-07-20T11:01:41.200Z,17.29
2018-07-20T11:04:12.429Z,17.46
2018-07-20T11:06:44.855Z,16.37
2018-07-20T11:09:15.730Z,16.69
2018-07-20T11:11:47.001Z,16.46
2018-07-20T11:14:19.571Z,16.65
2018-07-20T11:16:51.433Z,16.64
2018-07-20T11:19:22.717Z,17.00
2018-07-20T11:21:56.421Z,17.42
2018-07-20T11:24:30.063Z,17.17
2018-07-20T11:27:01.364Z,16.86
2018-07-20T11:29:32.641Z,16.81
2018-07-20T11:32:04.636Z,18.05
2018-07-20T11:34:36.929Z,18.36
2018-07-20T11:37:11.091Z,17.68
2018-07-20T11:39:43.185Z,17.82
2018-07-20T11:42:15.070Z,18.12
2018-07-20T11:44:47.455Z,18.37
2018-07-20T11:47:18.454Z,18.22
2018-07-20T11:49:50.239Z,18.26
2018-07-20T11:52:25.364Z,17.98
2018-07-20T11:54:57.597Z,19.08
2018-07-20T11:57:28.590Z,19.23
2018-07-20T12:00:00.616Z,19.16
2018-07-20T12:02:31.238Z,18.44
2018-07-20T12:05:01.978Z,18.76
2018-07-20T12:07:33.065Z,18.23
2018-07-20T12:10:05.232Z,17.54
2018-07-20T12:12:36.292Z,17.83
2018-07-20T12:15:07.712Z,17.47
2018-07-20T12:17:39.141Z,17.42
2018-07-20T12:20:11.341Z,16.82
2018-07-20T12:22:42.504Z,19.51
2018-07-20T12:25:14.480Z,19.22
2018-07-20T12:27:47.748Z,21.37
2018-07-20T12:30:20.503Z,21.60
2018-07-20T12:32:51.474Z,22.05
2018-07-20T12:35:28.387Z,20.49
2018-07-20T12:37:59.496Z,19.22
2018-07-20T12:40:32.141Z,18.22
2018-07-20T12:43:02.932Z,17.82
2018-07-20T12:45:33.855Z,17.74
2018-07-20T12:48:05.554Z,16.50
2018-07-20T12:50:38.038Z,16.57
2018-07-20T12:53:13.824Z,17.12
2018-07-20T12:55:46.276Z,17.13
2018-07-20T12:58:17.664Z,16.98
2018-07-20T13:00:48.589Z,18.05
2018-07-20T13:03:19.704Z,18.86
2018-07-20T13:05:50.705Z,18.61
2018-07-20T13:08:22.522Z,18.66
2018-07-20T13:10:53.805Z,19.98
2018-07-20T13:13:26.040Z,19.82
2018-07-20T13:15:57.746Z,19.89
2018-07-20T13:18:28.586Z,22.93
2018-07-20T13:20:59.637Z,22.54
2018-07-20T13:23:30.770Z,20.61
2018-07-20T13:26:01.610Z,20.16
2018-07-20T13:28:32.957Z,20.90
2018-07-20T13:31:04.159Z,21.45
2018-07-20T13:33:37.857Z,22.63
2018-07-20T13:36:08.861Z,23.67
2018-07-20T13:38:39.661Z,22.67
2018-07-20T13:41:11.623Z,24.24
2018-07-20T13:43:43.379Z,24.21
2018-07-20T13:46:14.467Z,23.17
2018-07-20T13:48:45.867Z,23.67
2018-07-20T13:51:18.541Z,24.86
2018-07-20T13:53:49.473Z,23.95
2018-07-20T13:56:21.431Z,25.70
2018-07-20T13:58:53.370Z,25.97
2018-07-20T14:01:26.772Z,25.60
2018-07-20T14:03:58.414Z,23.24
2018-07-20T14:06:31.284Z,21.86
2018-07-20T14:09:06.615Z,25.33
2018-07-20T14:11:37.763Z,25.77
2018-07-20T14:14:09.009Z,25.23
2018-07-20T14:16:40.747Z,22.94
2018-07-20T14:19:11.803Z,24.29
2018-07-20T14:21:42.766Z,24.08
2018-07-20T14:24:15.032Z,24.40
2018-07-20T14:26:45.817Z,23.55
2018-07-20T14:29:17.261Z,24.78
2018-07-20T14:31:52.291Z,25.40
2018-07-20T14:34:23.537Z,24.48
2018-07-20T14:36:54.439Z,24.73
2018-07-20T14:39:26.289Z,24.45
2018-07-20T14:41:58.026Z,24.88
2018-07-20T14:44:29.471Z,26.23
2018-07-20T14:47:01.176Z,26.72
2018-07-20T14:49:31.880Z,25.02
2018-07-20T14:52:02.806Z,26.17
2018-07-20T14:54:33.868Z,24.96
2018-07-20T14:57:05.839Z,26.03
2018-07-20T14:59:37.701Z,25.81
2018-07-20T15:02:08.491Z,26.48
2018-07-20T15:04:39.843Z,26.13
2018-07-20T15:07:11.114Z,25.89
2018-07-20T15:09:42.057Z,25.88
2018-07-20T15:12:12.995Z,26.33
2018-07-20T15:14:44.545Z,26.91
2018-07-20T15:17:17.816Z,27.07
2018-07-20T15:19:48.647Z,25.74
2018-07-20T15:22:20.292Z,27.26
2018-07-20T15:24:51.085Z,28.19
2018-07-20T15:27:21.780Z,29.14
2018-07-20T15:29:52.522Z,30.07
2018-07-20T15:32:23.947Z,31.04
2018-07-20T15:34:55.634Z,32.03
2018-07-20T15:37:27.584Z,31.76
2018-07-20T15:39:58.724Z,30.80
2018-07-20T15:42:29.719Z,32.45
2018-07-20T15:45:01.011Z,32.27
2018-07-20T15:47:32.567Z,32.28
2018-07-20T15:50:04.545Z,31.75
2018-07-20T15:55:09.659Z,31.52
2018-07-20T15:57:42.753Z,31.56
2018-07-20T16:00:14.678Z,32.28
2018-07-20T16:02:47.691Z,32.78
2018-07-20T16:05:24.457Z,33.09
2018-07-20T16:07:59.445Z,33.97
2018-07-20T16:10:33.249Z,33.26
2018-07-20T16:13:05.866Z,33.14
2018-07-20T16:15:40.884Z,33.30
2018-07-20T16:18:14.155Z,32.80
2018-07-20T16:20:46.605Z,32.69
2018-07-20T16:23:18.707Z,33.24
2018-07-20T16:25:50.319Z,32.78
2018-07-20T16:28:22.875Z,32.29
2018-07-20T16:30:56.883Z,32.15
2018-07-20T16:33:28.385Z,31.86
2018-07-20T16:36:00.647Z,32.52
2018-07-20T16:38:32.324Z,32.67
2018-07-20T16:41:03.913Z,31.82
2018-07-20T16:43:35.583Z,33.11
2018-07-20T16:46:07.768Z,32.24
2018-07-20T16:48:40.385Z,32.87
2018-07-20T16:51:13.602Z,32.49
2018-07-20T16:53:45.035Z,32.58
2018-07-20T16:56:15.785Z,32.87
2018-07-20T16:58:48.322Z,33.24
2018-07-20T17:01:20.180Z,33.29
2018-07-20T17:03:51.965Z,32.01
2018-07-20T17:06:23.911Z,32.20
2018-07-20T17:08:55.910Z,32.28
2018-07-20T17:11:26.687Z,32.52
2018-07-20T17:13:57.715Z,32.83
2018-07-20T17:16:29.508Z,32.36
2018-07-20T17:19:01.063Z,33.04
2018-07-20T17:21:33.741Z,32.88
2018-07-20T17:24:05.065Z,32.60
2018-07-20T17:26:37.086Z,32.85
2018-07-20T17:29:09.101Z,32.98
2018-07-20T17:31:40.213Z,33.38
2018-07-20T17:34:10.775Z,33.15
2018-07-20T17:36:41.803Z,32.95
2018-07-20T17:39:14.381Z,33.44
2018-07-20T17:41:46.959Z,33.94
2018-07-20T17:44:17.906Z,33.47
2018-07-20T17:46:48.999Z,34.38
2018-07-20T17:49:21.428Z,34.05
2018-07-20T17:51:53.451Z,34.28
2018-07-20T17:54:27.040Z,34.14
2018-07-20T17:56:58.165Z,34.33
2018-07-20T17:59:29.449Z,34.14
2018-07-20T18:02:01.299Z,34.70
2018-07-20T18:04:33.811Z,35.41
2018-07-20T18:07:07.388Z,35.56
2018-07-20T18:09:40.290Z,35.53
2018-07-20T18:12:19.106Z,36.12
2018-07-20T18:14:53.079Z,35.50
2018-07-20T18:17:24.135Z,35.66
2018-07-20T18:19:55.942Z,37.54
2018-07-20T18:22:28.326Z,39.51
2018-07-20T18:24:59.089Z,40.70
2018-07-20T18:27:31.267Z,41.40
2018-07-20T18:30:01.876Z,41.10
2018-07-20T18:32:33.420Z,41.11
2018-07-20T18:35:05.022Z,41.73
2018-07-20T18:37:36.649Z,41.78
2018-07-20T18:40:09.959Z,42.98
2018-07-20T18:42:41.862Z,43.37
2018-07-20T18:45:12.646Z,43.96
2018-07-20T18:47:44.697Z,43.59
2018-07-20T18:50:17.352Z,43.63
2018-07-20T18:52:48.203Z,44.45
2018-07-20T18:55:20.217Z,44.15
2018-07-20T18:57:52.556Z,44.39
2018-07-20T19:00:23.317Z,44.84
2018-07-20T19:02:54.934Z,45.06
2018-07-20T19:05:26.463Z,45.30
2018-07-20T19:07:56.794Z,45.30
2018-07-20T19:10:27.754Z,46.15
2018-07-20T19:12:59.763Z,47.58
2018-07-20T19:15:31.537Z,48.39
2018-07-20T19:18:02.555Z,48.92
2018-07-20T19:20:34.524Z,48.94
2018-07-20T19:23:05.715Z,48.39
2018-07-20T19:25:38.145Z,48.82
2018-07-20T19:28:11.465Z,49.48
2018-07-20T19:30:43.381Z,49.43
2018-07-20T19:33:15.446Z,49.85
2018-07-20T19:35:47.312Z,50.05
2018-07-20T19:38:18.661Z,50.53
2018-07-20T19:40:49.534Z,51.09
2018-07-20T19:43:21.529Z,51.21
2018-07-20T19:45:54.167Z,51.88
2018-07-20T19:48:25.512Z,51.20
2018-07-20T19:50:58.840Z,51.14
2018-07-20T19:53:30.047Z,51.35
2018-07-20T19:56:01.934Z,51.66
2018-07-20T19:58:33.445Z,51.75
2018-07-20T20:01:06.109Z,52.73
2018-07-20T20:03:39.009Z,52.66
2018-07-20T20:06:10.605Z,52.84
2018-07-20T20:08:42.096Z,53.55
2018-07-20T20:11:15.864Z,54.42
2018-07-20T20:13:47.085Z,54.62
2018-07-20T20:16:20.155Z,55.22
2018-07-20T20:18:52.814Z,55.78
2018-07-20T20:21:27.238Z,55.76
2018-07-20T20:23:58.874Z,55.80
2018-07-20T20:26:30.360Z,56.07
2018-07-20T20:29:01.968Z,56.76
2018-07-20T20:31:36.397Z,56.96
2018-07-20T20:34:09.141Z,56.29
2018-07-20T20:36:40.376Z,56.50
2018-07-20T20:39:13.501Z,57.50
2018-07-20T20:41:45.152Z,57.91
2018-07-20T20:44:16.148Z,57.84
2018-07-20T20:46:48.563Z,58.73
2018-07-20T20:49:20.879Z,58.62
2018-07-20T20:51:52.155Z,59.07
2018-07-20T20:54:23.396Z,58.52
2018-07-20T20:56:54.566Z,57.97
2018-07-20T20:59:25.581Z,58.14
2018-07-20T21:01:56.909Z,58.58
2018-07-20T21:04:28.573Z,59.09
2018-07-20T21:06:59.437Z,59.17
2018-07-20T21:09:30.181Z,58.92
2018-07-20T21:12:01.079Z,59.15
2018-07-20T21:14:31.737Z,58.90
2018-07-20T21:17:03.396Z,59.77
2018-07-20T21:19:34.452Z,60.01
2018-07-20T21:22:06.569Z,60.35
2018-07-20T21:24:37.787Z,60.81
2018-07-20T21:27:08.552Z,60.30
2018-07-20T21:29:40.656Z,59.85
2018-07-20T21:32:17.805Z,59.90
2018-07-20T21:34:51.655Z,59.72
2018-07-20T21:37:24.001Z,60.18
2018-07-20T21:39:55.315Z,60.36
2018-07-20T21:42:26.917Z,60.75
2018-07-20T21:44:57.901Z,61.56
2018-07-20T21:47:29.377Z,61.12
2018-07-20T21:50:00.532Z,60.88
2018-07-20T21:52:31.745Z,60.14
2018-07-20T21:55:03.535Z,59.96
2018-07-20T21:57:34.748Z,59.74
2018-07-20T22:00:12.882Z,59.25
2018-07-20T22:02:44.487Z,58.87
2018-07-20T22:05:16.194Z,59.03
2018-07-20T22:07:59.222Z,59.37
2018-07-20T22:10:32.161Z,59.63
2018-07-20T22:13:09.497Z,60.70
2018-07-20T22:15:40.889Z,61.49
2018-07-20T22:18:11.626Z,61.26
2018-07-20T22:20:42.631Z,62.14
2018-07-20T22:23:13.981Z,62.34
2018-07-20T22:25:44.452Z,62.28
2018-07-20T22:28:16.854Z,62.11
2018-07-20T22:30:47.762Z,62.82
2018-07-20T22:33:19.946Z,63.15
2018-07-20T22:35:51.829Z,62.95
2018-07-20T22:38:23.604Z,63.21
2018-07-20T22:40:54.723Z,63.10
2018-07-20T22:43:27.769Z,63.12
2018-07-20T22:45:59.420Z,62.45
2018-07-20T22:48:31.510Z,63.16
2018-07-20T22:51:05.123Z,63.07
2018-07-20T22:53:37.991Z,63.85
2018-07-20T22:56:09.543Z,64.45
2018-07-20T22:58:46.243Z,65.12
2018-07-20T23:01:20.768Z,65.37
2018-07-20T23:03:55.968Z,65.53
2018-07-20T23:06:27.696Z,66.68
2018-07-20T23:08:59.043Z,66.90
2018-07-20T23:11:33.120Z,66.69
2018-07-20T23:14:06.146Z,66.82
2018-07-20T23:16:38.608Z,66.19
2018-07-20T23:19:11.209Z,66.98
2018-07-20T23:21:42.332Z,66.58
2018-07-20T23:24:13.859Z,66.85
2018-07-20T23:26:46.492Z,67.09
2018-07-20T23:29:17.905Z,66.89
2018-07-20T23:31:48.799Z,67.42
2018-07-20T23:34:19.592Z,67.59
2018-07-20T23:36:50.200Z,67.85
2018-07-20T23:39:20.877Z,67.76
2018-07-20T23:41:53.120Z,69.12
2018-07-20T23:44:24.579Z,70.36
2018-07-20T23:46:55.608Z,70.09
2018-07-20T23:49:26.274Z,69.74
2018-07-20T23:51:57.080Z,69.62
2018-07-20T23:54:28.309Z,69.39
2018-07-20T23:56:58.955Z,69.82
2018-07-20T23:59:29.829Z,69.93
